createdAt,value
2023-05-13T00:00:31.153Z,11.60
2023-05-13T00:02:58.704Z,11.60
2023-05-13T00:05:25.732Z,11.60
2023-05-13T00:07:52.650Z,11.50
2023-05-13T00:10:20.876Z,11.50
2023-05-13T00:12:48.098Z,11.50
2023-05-13T00:15:14.965Z,11.50
2023-05-13T00:17:41.844Z,11.40
2023-05-13T00:20:09.091Z,11.40
2023-05-13T00:22:35.890Z,11.40
2023-05-13T00:25:02.900Z,11.30
2023-05-13T00:27:29.773Z,11.30
2023-05-13T00:29:56.676Z,11.30
2023-05-13T00:32:23.581Z,11.30
2023-05-13T00:34:50.515Z,11.40
2023-05-13T00:37:17.378Z,11.30
2023-05-13T00:39:44.187Z,11.30
2023-05-13T00:42:14.748Z,11.30
2023-05-13T00:44:41.697Z,11.30
2023-05-13T00:47:10.781Z,11.20
2023-05-13T00:49:37.661Z,11.20
2023-05-13T00:52:05.921Z,11.20
2023-05-13T00:54:32.909Z,11.30
2023-05-13T00:57:00.940Z,11.20
2023-05-13T00:59:30.442Z,11.30
2023-05-13T01:01:57.269Z,11.40
2023-05-13T01:04:53.051Z,11.50
2023-05-13T01:07:34.257Z,11.60
2023-05-13T01:10:27.339Z,11.80
2023-05-13T01:12:59.026Z,12.00
2023-05-13T01:15:27.743Z,11.80
2023-05-13T01:18:09.715Z,11.70
2023-05-13T01:20:40.773Z,11.60
2023-05-13T01:23:07.636Z,11.40
2023-05-13T01:25:34.944Z,11.30
2023-05-13T01:28:01.942Z,11.40
2023-05-13T01:30:29.082Z,11.20
2023-05-13T01:32:56.497Z,11.20
2023-05-13T01:35:24.464Z,11.20
2023-05-13T01:37:51.796Z,11.20
2023-05-13T01:40:31.684Z,11.20
2023-05-13T01:42:59.503Z,11.10
2023-05-13T01:45:29.782Z,11.10
2023-05-13T01:47:56.786Z,11.00
2023-05-13T01:50:23.921Z,10.90
2023-05-13T01:52:51.030Z,11.00
2023-05-13T01:55:17.994Z,11.00
2023-05-13T01:57:44.824Z,10.90
2023-05-13T02:00:12.558Z,10.90
2023-05-13T02:02:39.608Z,11.00
2023-05-13T02:05:06.730Z,10.90
2023-05-13T02:07:34.727Z,10.90
2023-05-13T02:10:01.760Z,10.80
2023-05-13T02:12:29.156Z,10.80
2023-05-13T02:14:56.072Z,10.80
2023-05-13T02:17:23.064Z,10.80
2023-05-13T02:19:50.376Z,10.80
2023-05-13T02:22:17.202Z,10.80
2023-05-13T02:24:44.102Z,10.80
2023-05-13T02:27:12.981Z,10.80
2023-05-13T02:29:39.931Z,10.80
2023-05-13T02:32:07.185Z,10.70
2023-05-13T02:34:34.244Z,10.70
2023-05-13T02:37:01.102Z,10.80
2023-05-13T02:39:28.136Z,10.70
2023-05-13T02:41:54.967Z,10.70
2023-05-13T02:44:21.835Z,10.60
2023-05-13T02:46:48.731Z,10.70
2023-05-13T02:49:15.558Z,10.70
2023-05-13T02:51:42.513Z,10.70
2023-05-13T02:54:09.394Z,10.60
2023-05-13T02:56:36.422Z,10.70
2023-05-13T02:59:03.276Z,10.80
2023-05-13T03:01:30.136Z,10.80
2023-05-13T03:03:57.105Z,10.80
2023-05-13T03:06:23.942Z,10.70
2023-05-13T03:08:51.390Z,10.70
2023-05-13T03:11:18.332Z,10.60
2023-05-13T03:13:45.186Z,10.50
2023-05-13T03:16:12.122Z,10.50
2023-05-13T03:18:39.047Z,10.60
2023-05-13T03:21:06.060Z,10.60
2023-05-13T03:23:34.032Z,10.60
2023-05-13T03:26:02.281Z,10.50
2023-05-13T03:28:29.178Z,10.50
2023-05-13T03:30:56.155Z,10.50
2023-05-13T03:33:23.085Z,10.50
2023-05-13T03:35:50.097Z,10.50
2023-05-13T03:38:16.992Z,10.50
2023-05-13T03:40:43.877Z,10.50
2023-05-13T03:43:10.836Z,10.50
2023-05-13T03:45:37.646Z,10.50
2023-05-13T03:48:04.662Z,10.50
2023-05-13T03:50:31.639Z,10.50
2023-05-13T03:52:58.463Z,10.40
2023-05-13T03:55:25.379Z,10.40
2023-05-13T03:57:52.191Z,10.50
2023-05-13T04:00:19.237Z,10.50
2023-05-13T04:02:46.371Z,10.50
2023-05-13T04:05:14.276Z,10.50
2023-05-13T04:07:41.566Z,10.50
2023-05-13T04:10:09.393Z,10.50
2023-05-13T04:12:36.321Z,10.50
2023-05-13T04:15:03.480Z,10.60
2023-05-13T04:17:30.484Z,10.60
2023-05-13T04:19:57.397Z,10.70
2023-05-13T04:22:24.873Z,10.80
2023-05-13T04:24:56.558Z,10.80
2023-05-13T04:27:24.332Z,10.80
2023-05-13T04:29:51.250Z,11.00
2023-05-13T04:32:22.119Z,11.00
2023-05-13T04:34:49.749Z,11.00
2023-05-13T04:37:16.965Z,11.10
2023-05-13T04:39:46.817Z,11.10
2023-05-13T04:42:14.460Z,11.20
2023-05-13T04:44:41.436Z,11.40
2023-05-13T04:47:08.334Z,11.40
2023-05-13T04:49:35.248Z,11.50
2023-05-13T04:52:03.694Z,11.60
2023-05-13T04:54:30.760Z,11.70
2023-05-13T04:56:57.607Z,11.70
2023-05-13T04:59:24.462Z,11.80
2023-05-13T05:01:51.312Z,12.10
2023-05-13T05:04:18.245Z,12.20
2023-05-13T05:06:45.211Z,12.40
2023-05-13T05:09:12.126Z,12.60
2023-05-13T05:11:39.226Z,12.80
2023-05-13T05:14:06.041Z,13.00
2023-05-13T05:16:32.906Z,13.30
2023-05-13T05:18:59.750Z,13.60
2023-05-13T05:21:26.861Z,13.80
2023-05-13T05:23:53.802Z,14.40
2023-05-13T05:26:20.840Z,15.50
2023-05-13T05:28:47.910Z,16.50
2023-05-13T05:31:14.946Z,17.40
2023-05-13T05:33:42.485Z,18.20
2023-05-13T05:36:09.554Z,18.60
2023-05-13T05:38:36.500Z,19.20
2023-05-13T05:41:03.798Z,19.60
2023-05-13T05:43:30.952Z,20.30
2023-05-13T05:45:57.910Z,20.80
2023-05-13T05:48:24.894Z,21.00
2023-05-13T05:50:51.733Z,21.40
2023-05-13T05:53:18.546Z,21.50
2023-05-13T05:55:45.379Z,21.80
2023-05-13T05:58:15.483Z,22.10
2023-05-13T06:00:42.507Z,22.10
2023-05-13T06:03:09.530Z,22.80
2023-05-13T06:05:36.461Z,23.00
2023-05-13T06:08:03.314Z,22.80
2023-05-13T06:10:30.156Z,22.30
2023-05-13T06:12:56.960Z,22.60
2023-05-13T06:15:23.968Z,22.90
2023-05-13T06:17:50.857Z,23.20
2023-05-13T06:20:17.874Z,22.90
2023-05-13T06:22:44.751Z,22.90
2023-05-13T06:25:11.684Z,23.10
2023-05-13T06:27:38.511Z,23.30
2023-05-13T06:30:06.578Z,23.20
2023-05-13T06:32:33.589Z,23.70
2023-05-13T06:35:00.475Z,23.50
2023-05-13T06:37:27.272Z,23.20
2023-05-13T06:39:54.133Z,23.70
2023-05-13T06:42:20.977Z,24.20
2023-05-13T06:44:47.813Z,24.40
2023-05-13T06:47:16.453Z,24.40
2023-05-13T06:49:43.468Z,24.70
2023-05-13T06:52:10.943Z,24.60
2023-05-13T06:54:37.878Z,24.80
2023-05-13T06:57:07.863Z,25.00
2023-05-13T06:59:36.187Z,24.80
2023-05-13T07:02:03.172Z,23.90
2023-05-13T07:04:30.498Z,24.10
2023-05-13T07:06:57.746Z,24.70
2023-05-13T07:09:25.730Z,25.10
2023-05-13T07:11:52.628Z,25.10
2023-05-13T07:14:20.124Z,24.10
2023-05-13T07:16:47.037Z,24.10
2023-05-13T07:19:13.920Z,24.20
2023-05-13T07:21:40.835Z,23.70
2023-05-13T07:24:07.790Z,23.70
2023-05-13T07:26:34.587Z,24.50
2023-05-13T07:29:02.108Z,24.30
2023-05-13T07:31:30.660Z,24.60
2023-05-13T07:33:57.819Z,24.60
2023-05-13T07:36:25.010Z,24.60
2023-05-13T07:38:51.830Z,24.80
2023-05-13T07:41:18.632Z,24.40
2023-05-13T07:43:45.541Z,24.70
2023-05-13T07:46:12.374Z,24.70
2023-05-13T07:48:39.409Z,24.90
2023-05-13T07:51:06.273Z,24.40
2023-05-13T07:53:33.196Z,24.80
2023-05-13T07:56:00.035Z,24.90
2023-05-13T07:58:26.891Z,24.60
2023-05-13T08:00:53.875Z,25.00
2023-05-13T08:03:20.968Z,24.90
2023-05-13T08:05:48.291Z,25.40
2023-05-13T08:08:15.120Z,24.90
2023-05-13T08:10:41.951Z,25.20
2023-05-13T08:13:08.834Z,24.60
2023-05-13T08:15:37.117Z,24.40
2023-05-13T08:18:04.158Z,24.20
2023-05-13T08:20:31.153Z,24.40
2023-05-13T08:22:58.604Z,24.20
2023-05-13T08:25:25.683Z,23.90
2023-05-13T08:27:52.551Z,24.20
2023-05-13T08:30:19.447Z,24.00
2023-05-13T08:32:46.687Z,24.10
2023-05-13T08:35:13.564Z,24.00
2023-05-13T08:37:40.420Z,24.20
2023-05-13T08:40:08.416Z,24.20
2023-05-13T08:42:40.095Z,23.60
2023-05-13T08:45:08.824Z,24.10
2023-05-13T08:47:42.101Z,24.20
2023-05-13T08:50:10.026Z,23.90
2023-05-13T08:52:36.881Z,23.90
2023-05-13T08:55:05.313Z,23.60
2023-05-13T08:57:32.131Z,23.60
2023-05-13T08:59:58.975Z,24.20
2023-05-13T09:02:25.926Z,24.40
2023-05-13T09:04:55.063Z,24.20
2023-05-13T09:07:22.432Z,24.40
2023-05-13T09:09:49.656Z,24.70
2023-05-13T09:12:44.722Z,24.60
2023-05-13T09:18:20.107Z,24.80
2023-05-13T09:20:48.268Z,24.90
2023-05-13T09:23:16.149Z,24.90
2023-05-13T09:25:43.715Z,24.50
2023-05-13T09:28:14.915Z,23.50
2023-05-13T09:30:43.886Z,23.30
2023-05-13T09:33:15.995Z,23.60
2023-05-13T09:35:45.072Z,23.20
2023-05-13T09:38:26.158Z,22.80
2023-05-13T09:40:58.217Z,22.60
2023-05-13T09:43:27.896Z,22.50
2023-05-13T09:45:56.138Z,21.90
2023-05-13T09:48:27.272Z,21.80
2023-05-13T09:50:56.216Z,21.60
2023-05-13T09:53:23.109Z,21.50
2023-05-13T09:55:51.783Z,21.60
2023-05-13T09:58:22.749Z,21.50
2023-05-13T10:00:49.671Z,21.80
2023-05-13T10:03:16.566Z,21.60
2023-05-13T10:05:44.005Z,21.30
2023-05-13T10:08:13.073Z,21.20
2023-05-13T10:10:45.883Z,21.20
2023-05-13T10:13:15.948Z,21.40
2023-05-13T10:15:51.284Z,21.30
2023-05-13T10:18:19.922Z,21.10
2023-05-13T10:20:47.683Z,21.00
2023-05-13T10:23:14.642Z,21.10
2023-05-13T10:25:43.068Z,21.30
2023-05-13T10:28:10.958Z,21.30
2023-05-13T10:30:39.059Z,21.40
2023-05-13T10:33:06.168Z,21.30
2023-05-13T10:35:40.538Z,21.20
2023-05-13T10:38:21.894Z,21.30
2023-05-13T10:41:00.793Z,21.40
2023-05-13T10:43:29.549Z,21.40
2023-05-13T10:46:08.511Z,21.20
2023-05-13T10:48:43.761Z,21.10
2023-05-13T10:51:15.008Z,21.10
2023-05-13T10:53:48.753Z,21.30
2023-05-13T10:56:50.045Z,21.30
2023-05-13T10:59:18.400Z,21.30
2023-05-13T11:01:46.999Z,21.30
2023-05-13T11:04:19.692Z,21.40
2023-05-13T11:06:48.694Z,21.40
2023-05-13T11:09:23.089Z,21.50
2023-05-13T11:11:54.754Z,21.50
2023-05-13T11:14:23.804Z,21.50
2023-05-13T11:19:28.339Z,21.90
2023-05-13T11:21:58.035Z,21.80
2023-05-13T11:24:25.327Z,21.60
2023-05-13T11:26:57.534Z,21.60
2023-05-13T11:29:31.998Z,21.60
2023-05-13T11:32:00.860Z,21.60
2023-05-13T11:34:29.169Z,21.60
2023-05-13T11:37:05.242Z,21.70
2023-05-13T11:39:33.332Z,21.70
2023-05-13T11:42:04.237Z,21.70
2023-05-13T11:44:31.492Z,21.80
2023-05-13T11:47:06.069Z,21.90
2023-05-13T11:49:35.063Z,21.90
2023-05-13T11:52:09.050Z,21.90
2023-05-13T11:54:52.479Z,21.90
2023-05-13T11:57:35.509Z,22.00
2023-05-13T12:00:10.390Z,22.10
2023-05-13T12:02:40.792Z,22.10
2023-05-13T12:05:09.857Z,22.10
2023-05-13T12:07:38.187Z,22.00
2023-05-13T12:10:06.909Z,21.90
2023-05-13T12:12:35.818Z,22.10
2023-05-13T12:15:05.342Z,22.20
2023-05-13T12:17:32.622Z,22.20
2023-05-13T12:20:08.897Z,22.10
2023-05-13T12:22:37.044Z,22.30
2023-05-13T12:25:40.874Z,22.40
2023-05-13T12:28:09.514Z,22.40
2023-05-13T12:30:37.845Z,22.40
2023-05-13T12:33:08.200Z,22.40
2023-05-13T12:35:35.206Z,22.30
2023-05-13T12:38:05.738Z,22.40
2023-05-13T12:40:32.852Z,22.50
2023-05-13T12:43:01.483Z,22.50
2023-05-13T12:45:33.106Z,22.40
2023-05-13T12:48:01.122Z,22.60
2023-05-13T12:50:28.099Z,22.80
2023-05-13T12:52:54.933Z,22.70
2023-05-13T12:55:22.095Z,22.70
2023-05-13T12:58:15.434Z,22.70
2023-05-13T13:00:42.357Z,22.70
2023-05-13T13:03:09.495Z,22.70
2023-05-13T13:05:36.822Z,22.70
2023-05-13T13:08:05.485Z,22.60
2023-05-13T13:10:32.552Z,22.60
2023-05-13T13:12:59.439Z,22.50
2023-05-13T13:15:26.304Z,22.60
2023-05-13T13:17:53.387Z,22.60
2023-05-13T13:20:20.572Z,22.80
2023-05-13T13:22:47.438Z,22.80
2023-05-13T13:25:14.247Z,23.00
2023-05-13T13:27:41.178Z,23.00
2023-05-13T13:30:08.860Z,22.90
2023-05-13T13:32:36.182Z,22.60
2023-05-13T13:35:05.719Z,22.60
2023-05-13T13:37:32.716Z,22.70
2023-05-13T13:39:59.568Z,22.70
2023-05-13T13:42:36.830Z,22.80
2023-05-13T13:45:10.780Z,22.80
2023-05-13T13:47:37.717Z,22.80
2023-05-13T13:50:05.112Z,22.70
2023-05-13T13:52:32.194Z,22.70
2023-05-13T13:54:59.257Z,22.90
2023-05-13T13:57:26.115Z,23.10
2023-05-13T13:59:52.933Z,22.90
2023-05-13T14:02:19.912Z,23.20
2023-05-13T14:04:46.970Z,22.90
2023-05-13T14:07:13.825Z,22.50
2023-05-13T14:09:40.657Z,22.20
2023-05-13T14:12:07.772Z,22.00
2023-05-13T14:14:34.586Z,22.00
2023-05-13T14:19:26.993Z,22.40
2023-05-13T14:21:53.814Z,22.60
2023-05-13T14:24:20.615Z,22.80
2023-05-13T14:26:47.640Z,22.90
2023-05-13T14:29:14.453Z,23.00
2023-05-13T14:31:41.457Z,22.50
2023-05-13T14:34:08.340Z,21.60
2023-05-13T14:36:36.109Z,21.00
2023-05-13T14:39:03.230Z,20.70
2023-05-13T14:41:30.429Z,20.70
2023-05-13T14:43:57.262Z,20.70
2023-05-13T14:46:24.169Z,20.70
2023-05-13T14:48:51.092Z,20.90
2023-05-13T14:51:18.046Z,20.90
2023-05-13T14:53:44.980Z,20.90
2023-05-13T14:56:12.156Z,21.00
2023-05-13T14:58:38.998Z,21.20
2023-05-13T15:01:05.887Z,21.30
2023-05-13T15:03:32.871Z,21.50
2023-05-13T15:05:59.861Z,21.70
2023-05-13T15:08:26.731Z,21.90
2023-05-13T15:10:53.561Z,22.20
2023-05-13T15:13:20.586Z,22.20
2023-05-13T15:15:47.513Z,22.30
2023-05-13T15:18:14.816Z,22.40
2023-05-13T15:20:41.773Z,22.30
2023-05-13T15:23:08.717Z,22.30
2023-05-13T15:25:36.312Z,22.30
2023-05-13T15:28:03.244Z,22.30
2023-05-13T15:30:30.248Z,22.60
2023-05-13T15:32:57.193Z,22.70
2023-05-13T15:35:24.127Z,22.80
2023-05-13T15:37:51.114Z,22.90
2023-05-13T15:40:17.937Z,23.00
2023-05-13T15:42:44.910Z,23.10
2023-05-13T15:45:11.776Z,23.00
2023-05-13T15:47:38.743Z,22.80
2023-05-13T15:50:06.794Z,22.60
2023-05-13T15:52:35.599Z,22.10
2023-05-13T15:55:02.502Z,21.80
2023-05-13T15:57:29.301Z,21.40
2023-05-13T15:59:56.135Z,21.10
2023-05-13T16:02:23.048Z,21.00
2023-05-13T16:04:49.949Z,20.80
2023-05-13T16:07:16.796Z,20.80
2023-05-13T16:09:43.638Z,20.90
2023-05-13T16:12:10.481Z,21.10
2023-05-13T16:14:38.206Z,20.70
2023-05-13T16:17:05.248Z,20.50
2023-05-13T16:19:32.077Z,20.40
2023-05-13T16:21:58.953Z,20.40
2023-05-13T16:24:26.332Z,20.20
2023-05-13T16:26:53.193Z,19.80
2023-05-13T16:29:20.240Z,19.70
2023-05-13T16:31:47.193Z,19.50
2023-05-13T16:34:14.142Z,19.20
2023-05-13T16:36:40.975Z,18.80
2023-05-13T16:39:07.895Z,18.60
2023-05-13T16:41:35.853Z,18.40
2023-05-13T16:44:02.788Z,18.20
2023-05-13T16:46:30.366Z,18.10
2023-05-13T16:48:58.661Z,18.10
2023-05-13T16:51:26.913Z,17.90
2023-05-13T16:53:53.729Z,17.70
2023-05-13T16:56:21.370Z,17.50
2023-05-13T16:58:48.206Z,17.40
2023-05-13T17:01:15.107Z,17.50
2023-05-13T17:03:42.057Z,17.50
2023-05-13T17:06:09.479Z,17.60
2023-05-13T17:08:36.325Z,17.70
2023-05-13T17:11:03.638Z,17.80
2023-05-13T17:13:30.502Z,17.80
2023-05-13T17:15:57.338Z,17.30
2023-05-13T17:18:24.293Z,17.10
2023-05-13T17:20:51.541Z,16.90
2023-05-13T17:23:18.589Z,16.70
2023-05-13T17:25:45.865Z,16.60
2023-05-13T17:28:12.747Z,16.50
2023-05-13T17:30:39.643Z,16.60
2023-05-13T17:33:06.622Z,16.60
2023-05-13T17:35:33.611Z,16.60
2023-05-13T17:40:41.140Z,16.60
2023-05-13T17:43:08.005Z,16.60
2023-05-13T17:45:35.919Z,16.60
2023-05-13T17:48:02.933Z,16.50
2023-05-13T17:50:33.224Z,16.50
2023-05-13T17:53:00.519Z,16.50
2023-05-13T17:55:27.364Z,16.40
2023-05-13T17:57:55.804Z,16.40
2023-05-13T18:00:24.739Z,16.40
2023-05-13T18:02:52.091Z,16.40
2023-05-13T18:05:19.730Z,16.40
2023-05-13T18:07:46.557Z,16.40
2023-05-13T18:10:13.647Z,16.40
2023-05-13T18:12:40.461Z,16.50
2023-05-13T18:15:07.592Z,16.60
2023-05-13T18:17:34.593Z,16.70
2023-05-13T18:20:01.509Z,16.70
2023-05-13T18:22:28.367Z,16.70
2023-05-13T18:24:55.229Z,16.80
2023-05-13T18:27:22.332Z,16.80
2023-05-13T18:29:49.208Z,16.80
2023-05-13T18:32:16.304Z,16.90
2023-05-13T18:34:43.179Z,16.90
2023-05-13T18:37:10.009Z,16.80
2023-05-13T18:39:37.031Z,16.70
2023-05-13T18:42:04.182Z,16.70
2023-05-13T18:44:31.129Z,16.60
2023-05-13T18:46:57.995Z,16.60
2023-05-13T18:49:28.302Z,16.40
2023-05-13T18:51:55.552Z,16.40
2023-05-13T18:54:22.997Z,16.30
2023-05-13T18:56:49.886Z,16.20
2023-05-13T18:59:16.883Z,16.30
2023-05-13T19:01:43.874Z,16.30
2023-05-13T19:04:12.444Z,16.30
2023-05-13T19:06:39.669Z,16.30
2023-05-13T19:09:06.635Z,16.20
2023-05-13T19:11:33.478Z,16.20
2023-05-13T19:14:00.412Z,16.40
2023-05-13T19:16:27.371Z,16.60
2023-05-13T19:18:54.388Z,16.60
2023-05-13T19:21:23.445Z,16.50
2023-05-13T19:23:50.645Z,16.30
2023-05-13T19:26:17.594Z,16.20
2023-05-13T19:28:45.802Z,15.90
2023-05-13T19:31:12.662Z,16.00
2023-05-13T19:33:39.551Z,15.90
2023-05-13T19:36:06.988Z,15.80
2023-05-13T19:38:34.949Z,15.70
2023-05-13T19:41:01.880Z,15.50
2023-05-13T19:43:28.764Z,15.50
2023-05-13T19:45:57.977Z,15.40
2023-05-13T19:48:24.876Z,15.30
2023-05-13T19:50:53.640Z,15.20
2023-05-13T19:53:22.441Z,15.10
2023-05-13T19:55:49.336Z,15.10
2023-05-13T19:58:16.234Z,15.00
2023-05-13T20:00:44.232Z,14.90
2023-05-13T20:03:11.381Z,14.80
2023-05-13T20:05:41.092Z,14.70
2023-05-13T20:08:07.921Z,14.70
2023-05-13T20:10:36.907Z,14.60
2023-05-13T20:13:07.238Z,14.50
2023-05-13T20:15:34.088Z,14.50
2023-05-13T20:18:01.067Z,14.40
2023-05-13T20:20:28.081Z,14.30
2023-05-13T20:22:55.272Z,14.30
2023-05-13T20:25:22.146Z,14.30
2023-05-13T20:27:48.996Z,14.20
2023-05-13T20:30:16.670Z,14.10
2023-05-13T20:32:43.904Z,14.10
2023-05-13T20:35:11.004Z,14.10
2023-05-13T20:37:37.874Z,14.20
2023-05-13T20:40:05.562Z,14.10
2023-05-13T20:42:33.913Z,14.10
2023-05-13T20:45:01.366Z,14.00
2023-05-13T20:47:28.325Z,14.00
2023-05-13T20:49:55.158Z,14.00
2023-05-13T20:52:22.102Z,14.00
2023-05-13T20:54:48.989Z,14.00
2023-05-13T20:57:15.976Z,14.00
2023-05-13T20:59:42.968Z,13.90
2023-05-13T21:02:09.808Z,13.90
2023-05-13T21:04:36.751Z,13.90
2023-05-13T21:07:05.153Z,13.80
2023-05-13T21:09:32.070Z,13.80
2023-05-13T21:11:58.853Z,13.80
2023-05-13T21:14:25.780Z,13.80
2023-05-13T21:19:25.029Z,13.80
2023-05-13T21:21:51.913Z,13.70
2023-05-13T21:24:19.674Z,13.70
2023-05-13T21:26:47.161Z,13.70
2023-05-13T21:29:14.019Z,13.70
2023-05-13T21:31:41.003Z,13.80
2023-05-13T21:34:08.032Z,13.90
2023-05-13T21:36:34.928Z,14.00
2023-05-13T21:39:01.771Z,14.10
2023-05-13T21:41:28.609Z,14.20
2023-05-13T21:43:55.484Z,14.20
2023-05-13T21:46:22.341Z,14.30
2023-05-13T21:48:49.350Z,14.30
2023-05-13T21:51:16.202Z,14.30
2023-05-13T21:53:43.679Z,14.30
2023-05-13T21:56:10.649Z,14.30
2023-05-13T21:58:37.513Z,14.20
2023-05-13T22:01:04.511Z,14.10
2023-05-13T22:03:31.409Z,14.20
2023-05-13T22:05:58.428Z,14.20
2023-05-13T22:08:25.377Z,14.20
2023-05-13T22:10:52.291Z,14.10
2023-05-13T22:13:21.569Z,14.10
2023-05-13T22:15:51.403Z,14.10
2023-05-13T22:18:18.519Z,14.00
2023-05-13T22:20:45.517Z,13.90
2023-05-13T22:23:12.603Z,13.80
2023-05-13T22:25:39.449Z,13.70
2023-05-13T22:28:06.645Z,13.60
2023-05-13T22:30:33.497Z,13.60
2023-05-13T22:33:00.434Z,13.50
2023-05-13T22:35:29.100Z,13.60
2023-05-13T22:37:55.990Z,13.50
2023-05-13T22:40:23.074Z,13.50
2023-05-13T22:42:50.117Z,13.50
2023-05-13T22:45:17.071Z,13.50
2023-05-13T22:47:44.035Z,13.50
2023-05-13T22:50:12.436Z,13.40
2023-05-13T22:52:39.571Z,13.50
2023-05-13T22:55:07.531Z,13.50
2023-05-13T22:57:34.529Z,13.40
2023-05-13T23:00:01.357Z,13.30
2023-05-13T23:02:28.234Z,13.30
2023-05-13T23:04:55.103Z,13.20
2023-05-13T23:07:21.999Z,13.20
2023-05-13T23:09:48.922Z,13.20
2023-05-13T23:12:16.068Z,13.20
2023-05-13T23:14:42.867Z,13.10
2023-05-13T23:17:09.791Z,13.20
2023-05-13T23:19:38.238Z,13.20
2023-05-13T23:22:05.158Z,13.30
2023-05-13T23:24:32.011Z,13.40
2023-05-13T23:26:58.830Z,13.40
2023-05-13T23:29:27.775Z,13.40
2023-05-13T23:31:55.502Z,13.50
2023-05-13T23:34:22.490Z,13.50
2023-05-13T23:36:49.298Z,13.40
2023-05-13T23:39:16.140Z,13.40
2023-05-13T23:41:43.106Z,13.40
2023-05-13T23:44:10.032Z,13.40
2023-05-13T23:46:36.919Z,13.40
2023-05-13T23:49:03.795Z,13.40
2023-05-13T23:51:31.118Z,13.40
2023-05-13T23:53:57.934Z,13.50
2023-05-13T23:56:24.753Z,13.50
2023-05-13T23:58:51.563Z,13.50
